Time;durP1;ratioP1;P1;durP2;ratioP2;P2;SDS_P1;SDS_P2;PMS_P1;PMS_P2;Temp;Humidity;BMP_temperature;BMP_pressure;BME280_temperature;BME280_humidity;BME280_pressure;Samples;Min_cycle;Max_cycle;Signal;HPM_P1;HPM_P2
2022/03/07 00:00:20;;;;;;;29.80;12.43;;;;;;;;;;4882644;29;20029;-87
2022/03/07 00:02:47;;;;;;;31.48;12.10;;;;;;;;;;4882986;29;20044;-89
2022/03/07 00:05:15;;;;;;;34.90;13.52;;;;;;;;;;4882981;29;20024;-88
2022/03/07 00:07:42;;;;;;;33.85;13.88;;;;;;;;;;4882802;29;20039;-88
2022/03/07 00:10:08;;;;;;;39.65;16.15;;;;;;;;;;4899552;29;20461;-88
2022/03/07 00:12:36;;;;;;;37.72;14.63;;;;;;;;;;4882731;29;20025;-88
2022/03/07 00:15:02;;;;;;;28.65;13.05;;;;;;;;;;4882605;29;20040;-88
2022/03/07 00:17:28;;;;;;;41.47;13.63;;;;;;;;;;4882742;29;20029;-87
2022/03/07 00:19:55;;;;;;;28.58;12.65;;;;;;;;;;4883405;29;20048;-88
2022/03/07 00:22:21;;;;;;;39.58;14.73;;;;;;;;;;4899912;29;20032;-87
2022/03/07 00:24:47;;;;;;;25.70;10.65;;;;;;;;;;4885832;29;20088;-89
2022/03/07 00:27:13;;;;;;;29.98;13.88;;;;;;;;;;4902420;29;20039;-87
2022/03/07 00:29:40;;;;;;;29.48;12.48;;;;;;;;;;4889181;29;20060;-89
2022/03/07 00:32:06;;;;;;;34.67;14.55;;;;;;;;;;4883070;29;20035;-87
2022/03/07 00:34:32;;;;;;;33.85;13.40;;;;;;;;;;4899021;29;20045;-89
2022/03/07 00:36:58;;;;;;;30.38;11.70;;;;;;;;;;4882152;29;20032;-88
2022/03/07 00:39:25;;;;;;;35.70;12.95;;;;;;;;;;4882120;29;20025;-88
2022/03/07 00:41:51;;;;;;;30.92;13.20;;;;;;;;;;4898317;29;20071;-90
2022/03/07 00:44:17;;;;;;;32.22;13.07;;;;;;;;;;4882266;29;20035;-88
2022/03/07 00:46:43;;;;;;;33.10;13.25;;;;;;;;;;4898603;29;20025;-89
2022/03/07 00:49:10;;;;;;;35.53;14.18;;;;;;;;;;4881693;29;20488;-86
2022/03/07 00:51:36;;;;;;;33.92;12.88;;;;;;;;;;4898528;29;20121;-87
2022/03/07 00:54:02;;;;;;;34.00;14.13;;;;;;;;;;4882043;29;20052;-88
2022/03/07 00:56:29;;;;;;;31.80;12.15;;;;;;;;;;4882056;29;20032;-88
2022/03/07 00:58:55;;;;;;;32.95;13.63;;;;;;;;;;4882173;29;20474;-87
2022/03/07 01:01:21;;;;;;;35.20;12.95;;;;;;;;;;4899095;29;20035;-90
2022/03/07 01:03:47;;;;;;;30.27;13.00;;;;;;;;;;4882147;29;20060;-88
2022/03/07 01:06:14;;;;;;;31.10;12.13;;;;;;;;;;4887986;29;20029;-88
2022/03/07 01:08:40;;;;;;;33.22;12.18;;;;;;;;;;4906487;29;20023;-90
2022/03/07 01:11:06;;;;;;;30.02;13.50;;;;;;;;;;4899097;29;20076;-89
2022/03/07 01:13:32;;;;;;;31.52;13.55;;;;;;;;;;4882276;29;20130;-88
2022/03/07 01:15:59;;;;;;;31.77;14.00;;;;;;;;;;4881795;29;20487;-88
2022/03/07 01:18:25;;;;;;;31.58;12.15;;;;;;;;;;4898621;29;20103;-89
2022/03/07 01:20:55;;;;;;;28.65;12.60;;;;;;;;;;4882280;29;20033;-89
2022/03/07 01:23:21;;;;;;;35.05;12.68;;;;;;;;;;4882023;29;20454;-89
2022/03/07 01:25:47;;;;;;;29.35;13.30;;;;;;;;;;4881713;29;20025;-89
2022/03/07 01:28:14;;;;;;;27.85;12.18;;;;;;;;;;4881825;29;20393;-87
2022/03/07 01:30:40;;;;;;;26.42;11.82;;;;;;;;;;4881658;29;20024;-88
2022/03/07 01:33:07;;;;;;;31.35;13.23;;;;;;;;;;4882271;29;20136;-88
2022/03/07 01:35:33;;;;;;;30.05;13.90;;;;;;;;;;4884716;29;20028;-88
2022/03/07 01:37:59;;;;;;;34.63;12.70;;;;;;;;;;4902135;29;20038;-89
2022/03/07 01:40:26;;;;;;;33.17;13.73;;;;;;;;;;4885493;29;20115;-90
2022/03/07 01:42:52;;;;;;;28.75;12.63;;;;;;;;;;4885146;29;20076;-87
2022/03/07 01:45:19;;;;;;;29.80;11.48;;;;;;;;;;4885482;29;20029;-89
2022/03/07 01:47:46;;;;;;;29.98;13.43;;;;;;;;;;4884926;29;20032;-87
2022/03/07 01:50:15;;;;;;;33.65;13.18;;;;;;;;;;4901953;29;20102;-88
2022/03/07 01:52:43;;;;;;;31.65;13.55;;;;;;;;;;4884967;29;20033;-87
2022/03/07 01:55:10;;;;;;;28.25;12.70;;;;;;;;;;4882678;29;20060;-86
2022/03/07 01:57:41;;;;;;;31.10;13.10;;;;;;;;;;4890750;29;20036;-86
2022/03/07 02:00:08;;;;;;;35.92;13.80;;;;;;;;;;4884781;29;20459;-87
2022/03/07 02:02:35;;;;;;;26.05;12.38;;;;;;;;;;4885075;29;20041;-86
2022/03/07 02:05:01;;;;;;;31.35;13.93;;;;;;;;;;4884975;29;20029;-87
2022/03/07 02:07:27;;;;;;;30.80;12.88;;;;;;;;;;4885162;29;20029;-89
2022/03/07 02:09:54;;;;;;;30.92;13.27;;;;;;;;;;4884881;29;20029;-88
2022/03/07 02:12:20;;;;;;;28.23;12.57;;;;;;;;;;4884940;29;20029;-87
2022/03/07 02:14:47;;;;;;;27.08;10.95;;;;;;;;;;4885137;29;20229;-89
2022/03/07 02:17:13;;;;;;;30.92;12.50;;;;;;;;;;4901924;29;20418;-89
2022/03/07 02:19:39;;;;;;;31.92;12.35;;;;;;;;;;4901788;29;20036;-89
2022/03/07 02:22:06;;;;;;;28.40;11.45;;;;;;;;;;4884791;29;20060;-89
2022/03/07 02:24:32;;;;;;;26.30;10.88;;;;;;;;;;4885099;29;20474;-90
2022/03/07 02:27:03;;;;;;;29.13;12.32;;;;;;;;;;4885346;29;20024;-87
2022/03/07 02:29:30;;;;;;;25.35;12.45;;;;;;;;;;4884556;29;20037;-88
2022/03/07 02:31:56;;;;;;;27.45;11.88;;;;;;;;;;4884451;29;20021;-89
2022/03/07 02:34:22;;;;;;;29.30;12.93;;;;;;;;;;4885170;29;20496;-87
2022/03/07 02:36:49;;;;;;;29.02;12.10;;;;;;;;;;4901701;29;20031;-90
2022/03/07 02:39:15;;;;;;;25.45;11.15;;;;;;;;;;4884594;29;20060;-88
2022/03/07 02:41:42;;;;;;;24.00;10.95;;;;;;;;;;4881438;29;20491;-88
2022/03/07 02:44:08;;;;;;;30.90;12.48;;;;;;;;;;4881359;29;20069;-90
2022/03/07 02:46:35;;;;;;;26.63;11.82;;;;;;;;;;4881073;29;20035;-88
2022/03/07 02:49:02;;;;;;;28.25;12.25;;;;;;;;;;4889385;29;20032;-89
2022/03/07 02:51:28;;;;;;;25.55;10.68;;;;;;;;;;4905319;29;20013;-92
2022/03/07 02:53:54;;;;;;;32.40;12.85;;;;;;;;;;4896609;29;20124;-87
2022/03/07 02:56:20;;;;;;;22.95;10.90;;;;;;;;;;4883729;29;20028;-87
2022/03/07 02:58:47;;;;;;;26.35;11.00;;;;;;;;;;4886813;29;20036;-86
2022/03/07 03:01:13;;;;;;;25.80;10.75;;;;;;;;;;4895548;29;20036;-87
2022/03/07 03:03:40;;;;;;;32.85;13.00;;;;;;;;;;4886243;29;20542;-89
2022/03/07 03:06:06;;;;;;;29.08;11.80;;;;;;;;;;4884183;29;20036;-87
2022/03/07 03:08:32;;;;;;;26.25;12.20;;;;;;;;;;4880691;29;20036;-87
2022/03/07 03:10:58;;;;;;;26.85;12.23;;;;;;;;;;4881523;29;20040;-88
2022/03/07 03:13:24;;;;;;;24.27;10.85;;;;;;;;;;4880007;29;20109;-88
2022/03/07 03:15:51;;;;;;;24.50;11.25;;;;;;;;;;4880289;29;20041;-90
2022/03/07 03:18:18;;;;;;;26.13;12.20;;;;;;;;;;4880375;29;20029;-88
2022/03/07 03:20:46;;;;;;;24.77;11.25;;;;;;;;;;4880498;29;20025;-88
2022/03/07 03:23:12;;;;;;;23.35;10.25;;;;;;;;;;4880972;29;20044;-87
2022/03/07 03:25:39;;;;;;;25.85;10.55;;;;;;;;;;4881179;29;20080;-88
2022/03/07 03:28:06;;;;;;;24.45;10.90;;;;;;;;;;4880355;29;20040;-88
2022/03/07 03:30:32;;;;;;;23.73;10.70;;;;;;;;;;4881415;29;20025;-88
2022/03/07 03:32:59;;;;;;;25.23;10.90;;;;;;;;;;4879709;29;20529;-87
2022/03/07 03:35:25;;;;;;;18.92;9.90;;;;;;;;;;4881073;29;20105;-87
2022/03/07 03:37:52;;;;;;;22.92;10.60;;;;;;;;;;4881039;29;20041;-90
2022/03/07 03:40:18;;;;;;;21.77;9.90;;;;;;;;;;4879990;29;20031;-90
2022/03/07 03:42:45;;;;;;;20.30;8.73;;;;;;;;;;4879253;29;20057;-89
2022/03/07 03:45:11;;;;;;;21.38;9.10;;;;;;;;;;4879849;29;20025;-87
2022/03/07 03:47:38;;;;;;;20.90;9.13;;;;;;;;;;4880938;29;20029;-87
2022/03/07 03:50:06;;;;;;;23.58;10.00;;;;;;;;;;4879642;29;20061;-87
2022/03/07 03:52:32;;;;;;;21.85;9.80;;;;;;;;;;4879482;29;20088;-84
2022/03/07 03:54:58;;;;;;;21.85;9.77;;;;;;;;;;4879360;29;20108;-90
2022/03/07 03:57:25;;;;;;;22.38;10.63;;;;;;;;;;4880294;29;20056;-88
2022/03/07 03:59:51;;;;;;;19.42;10.00;;;;;;;;;;4879392;29;20382;-88
2022/03/07 04:02:17;;;;;;;21.70;8.80;;;;;;;;;;4879168;29;20375;-85
2022/03/07 04:04:44;;;;;;;25.48;11.25;;;;;;;;;;4879384;29;20037;-87
2022/03/07 04:07:10;;;;;;;18.92;9.27;;;;;;;;;;4879136;29;20482;-86
2022/03/07 04:09:36;;;;;;;18.98;8.63;;;;;;;;;;4879427;29;20041;-87
2022/03/07 04:12:02;;;;;;;24.88;10.25;;;;;;;;;;4880345;29;20021;-87
2022/03/07 04:14:28;;;;;;;21.05;9.77;;;;;;;;;;4879119;29;20070;-86
2022/03/07 04:16:55;;;;;;;22.20;9.10;;;;;;;;;;4879057;29;20060;-86
2022/03/07 04:19:21;;;;;;;24.35;9.20;;;;;;;;;;4880347;29;20120;-86
2022/03/07 04:21:47;;;;;;;23.90;9.27;;;;;;;;;;4879424;29;20061;-87
2022/03/07 04:24:14;;;;;;;24.08;8.80;;;;;;;;;;4879510;29;20033;-86
2022/03/07 04:26:41;;;;;;;22.52;10.77;;;;;;;;;;4880451;29;20037;-89
2022/03/07 04:29:08;;;;;;;22.60;10.05;;;;;;;;;;4879249;29;20386;-87
2022/03/07 04:31:44;;;;;;;21.92;9.80;;;;;;;;;;4890606;29;20085;-89
2022/03/07 04:34:13;;;;;;;23.17;9.80;;;;;;;;;;4902813;29;20013;-86
2022/03/07 04:36:39;;;;;;;21.77;9.48;;;;;;;;;;4887299;29;20036;-89
2022/03/07 04:39:06;;;;;;;22.35;9.65;;;;;;;;;;4879179;29;20086;-89
2022/03/07 04:41:33;;;;;;;22.70;10.27;;;;;;;;;;4879436;29;20087;-86
2022/03/07 04:44:00;;;;;;;23.90;10.07;;;;;;;;;;4879114;29;20100;-86
2022/03/07 04:46:26;;;;;;;21.10;9.48;;;;;;;;;;4879053;29;20084;-86
2022/03/07 04:48:52;;;;;;;20.13;8.93;;;;;;;;;;4878915;29;20036;-86
2022/03/07 04:51:18;;;;;;;25.23;9.98;;;;;;;;;;4879195;29;20056;-87
2022/03/07 04:53:45;;;;;;;27.80;11.20;;;;;;;;;;4879240;29;20183;-88
2022/03/07 04:56:12;;;;;;;26.45;12.02;;;;;;;;;;4879468;29;20067;-86
2022/03/07 04:58:38;;;;;;;23.83;10.60;;;;;;;;;;4880467;29;20089;-88
2022/03/07 05:01:05;;;;;;;24.08;9.68;;;;;;;;;;4880283;29;20116;-86
2022/03/07 05:03:32;;;;;;;22.27;10.10;;;;;;;;;;4881098;29;20140;-85
2022/03/07 05:06:01;;;;;;;26.02;10.80;;;;;;;;;;4878736;29;20033;-88
2022/03/07 05:08:27;;;;;;;24.55;10.95;;;;;;;;;;4880831;29;20029;-86
2022/03/07 05:10:53;;;;;;;19.30;8.90;;;;;;;;;;4883629;29;20025;-88
2022/03/07 05:13:20;;;;;;;20.02;9.20;;;;;;;;;;4884629;29;20088;-87
2022/03/07 05:15:46;;;;;;;23.13;10.88;;;;;;;;;;4882983;29;20487;-86
2022/03/07 05:18:14;;;;;;;23.15;10.48;;;;;;;;;;4883471;29;20395;-86
2022/03/07 05:20:40;;;;;;;26.58;9.88;;;;;;;;;;4882600;29;20033;-87
2022/03/07 05:23:06;;;;;;;23.42;10.32;;;;;;;;;;4883780;29;20040;-89
2022/03/07 05:25:33;;;;;;;23.67;9.30;;;;;;;;;;4883647;29;20021;-89
2022/03/07 05:27:59;;;;;;;23.65;10.10;;;;;;;;;;4885956;29;20040;-89
2022/03/07 05:30:28;;;;;;;26.15;9.68;;;;;;;;;;4876138;29;20030;-89
2022/03/07 05:32:55;;;;;;;26.55;10.23;;;;;;;;;;4877395;29;20029;-85
2022/03/07 05:35:23;;;;;;;27.02;11.93;;;;;;;;;;4873910;29;20471;-88
2022/03/07 05:37:49;;;;;;;23.55;10.45;;;;;;;;;;4865947;29;20043;-88
2022/03/07 05:40:16;;;;;;;26.17;10.48;;;;;;;;;;4863659;29;20029;-88
2022/03/07 05:42:42;;;;;;;23.10;10.13;;;;;;;;;;4863322;29;20045;-87
2022/03/07 05:45:10;;;;;;;26.05;10.57;;;;;;;;;;4865377;29;20372;-87
2022/03/07 05:47:36;;;;;;;28.15;10.77;;;;;;;;;;4878645;29;20021;-87
2022/03/07 05:50:06;;;;;;;24.20;10.10;;;;;;;;;;4881617;29;20040;-89
2022/03/07 05:52:33;;;;;;;25.35;11.30;;;;;;;;;;4882054;29;20061;-89
2022/03/07 05:54:59;;;;;;;26.75;11.77;;;;;;;;;;4882021;29;20037;-87
2022/03/07 05:57:25;;;;;;;20.33;10.20;;;;;;;;;;4881644;29;20060;-89
2022/03/07 05:59:51;;;;;;;25.92;11.10;;;;;;;;;;4881221;29;20036;-89
2022/03/07 06:05:22;;;;;;;27.70;11.57;;;;;;;;;;4893934;23;20127;-89
2022/03/07 06:08:07;;;;;;;26.17;11.85;;;;;;;;;;4888877;29;20035;-85
2022/03/07 06:10:36;;;;;;;24.45;10.35;;;;;;;;;;4903132;29;20032;-88
2022/03/07 06:13:02;;;;;;;28.98;10.88;;;;;;;;;;4902094;29;20493;-87
2022/03/07 06:15:31;;;;;;;23.33;10.45;;;;;;;;;;4921972;29;20032;-89
2022/03/07 06:17:58;;;;;;;34.72;15.52;;;;;;;;;;4926379;29;20048;-91
2022/03/07 06:20:25;;;;;;;33.20;15.07;;;;;;;;;;4899530;29;20037;-88
2022/03/07 06:22:51;;;;;;;25.58;11.93;;;;;;;;;;4900829;29;20100;-90
2022/03/07 06:25:19;;;;;;;24.67;11.27;;;;;;;;;;4884115;29;20466;-88
2022/03/07 06:27:45;;;;;;;23.42;11.80;;;;;;;;;;4883832;29;20043;-86
2022/03/07 06:30:11;;;;;;;30.77;16.42;;;;;;;;;;4883902;29;20096;-86
2022/03/07 06:32:37;;;;;;;26.02;12.90;;;;;;;;;;4885245;29;20382;-88
2022/03/07 06:38:07;;;;;;;23.43;10.93;;;;;;;;;;4918503;23;20048;-87
2022/03/07 06:40:53;;;;;;;31.20;12.27;;;;;;;;;;4885352;29;20812;-86
2022/03/07 06:43:19;;;;;;;25.05;11.55;;;;;;;;;;4884018;29;20132;-92
2022/03/07 06:45:46;;;;;;;24.42;11.68;;;;;;;;;;4884615;29;20029;-91
2022/03/07 06:48:12;;;;;;;28.40;11.93;;;;;;;;;;5268140;23;20386;-88
2022/03/07 06:50:38;;;;;;;30.63;12.02;;;;;;;;;;4884018;29;20025;-89
2022/03/07 06:53:05;;;;;;;21.48;10.70;;;;;;;;;;4884276;29;20048;-89
2022/03/07 06:55:31;;;;;;;22.17;11.38;;;;;;;;;;4884326;29;20025;-89
2022/03/07 06:57:57;;;;;;;25.85;11.43;;;;;;;;;;4883797;29;20056;-88
2022/03/07 07:00:23;;;;;;;23.80;11.00;;;;;;;;;;4883532;29;20035;-88
2022/03/07 07:03:24;;;;;;;25.40;11.02;;;;;;;;;;4883461;29;20041;-88
2022/03/07 07:05:51;;;;;;;20.02;10.18;;;;;;;;;;4883603;29;20025;-90
2022/03/07 07:08:23;;;;;;;22.75;9.90;;;;;;;;;;4879280;29;20057;-92
2022/03/07 07:10:52;;;;;;;24.15;11.15;;;;;;;;;;4864360;29;20036;-88
2022/03/07 07:13:37;;;;;;;25.65;10.82;;;;;;;;;;4865014;29;20037;-89
2022/03/07 07:16:03;;;;;;;21.77;10.80;;;;;;;;;;4865090;29;20029;-89
2022/03/07 07:18:29;;;;;;;23.73;11.68;;;;;;;;;;4874134;29;20390;-87
2022/03/07 07:20:55;;;;;;;22.02;10.60;;;;;;;;;;4864363;29;20474;-91
2022/03/07 07:23:21;;;;;;;26.23;11.52;;;;;;;;;;4877685;29;20037;-90
2022/03/07 07:25:48;;;;;;;22.73;10.43;;;;;;;;;;4874114;29;20061;-88
2022/03/07 07:28:14;;;;;;;27.80;11.95;;;;;;;;;;4880223;29;20052;-91
2022/03/07 07:30:41;;;;;;;25.10;11.27;;;;;;;;;;4875075;29;20129;-91
2022/03/07 07:33:07;;;;;;;22.48;11.80;;;;;;;;;;4872772;29;20052;-93
2022/03/07 07:35:36;;;;;;;22.88;10.68;;;;;;;;;;4865050;29;20036;-89
2022/03/07 07:38:02;;;;;;;21.98;11.75;;;;;;;;;;4864886;29;20092;-89
2022/03/07 07:40:28;;;;;;;21.67;10.05;;;;;;;;;;4864576;29;20169;-87
2022/03/07 07:42:54;;;;;;;24.80;11.90;;;;;;;;;;4864727;29;20561;-86
2022/03/07 07:45:20;;;;;;;20.48;10.55;;;;;;;;;;4864259;29;20482;-88
2022/03/07 07:47:47;;;;;;;23.52;11.13;;;;;;;;;;4864421;29;20036;-87
2022/03/07 07:50:13;;;;;;;23.10;11.43;;;;;;;;;;4861333;29;20053;-90
2022/03/07 07:52:39;;;;;;;23.90;12.45;;;;;;;;;;4861984;29;20025;-88
2022/03/07 07:55:06;;;;;;;25.35;12.45;;;;;;;;;;4861836;29;20029;-89
2022/03/07 07:57:32;;;;;;;29.60;12.95;;;;;;;;;;4862962;29;20090;-90
2022/03/07 07:59:59;;;;;;;22.52;12.13;;;;;;;;;;4861105;29;20032;-87
2022/03/07 08:02:25;;;;;;;24.92;13.90;;;;;;;;;;4874251;29;20040;-89
2022/03/07 08:04:54;;;;;;;22.45;11.13;;;;;;;;;;4885083;29;20029;-90
2022/03/07 08:07:20;;;;;;;25.10;11.68;;;;;;;;;;4873053;29;20033;-89
2022/03/07 08:09:47;;;;;;;23.38;12.27;;;;;;;;;;4862981;29;20105;-88
2022/03/07 08:12:17;;;;;;;23.55;11.77;;;;;;;;;;4863257;29;20547;-88
2022/03/07 08:14:43;;;;;;;22.90;12.30;;;;;;;;;;4863387;29;20483;-85
2022/03/07 08:17:11;;;;;;;25.83;13.68;;;;;;;;;;4874793;29;20033;-85
2022/03/07 08:19:37;;;;;;;23.67;12.52;;;;;;;;;;4871235;29;20029;-88
2022/03/07 08:22:04;;;;;;;28.23;13.50;;;;;;;;;;4861266;29;20100;-87
2022/03/07 08:24:30;;;;;;;28.90;14.00;;;;;;;;;;4861049;29;20078;-86
2022/03/07 08:26:59;;;;;;;24.38;12.40;;;;;;;;;;4861341;29;20093;-89
2022/03/07 08:29:36;;;;;;;25.60;13.15;;;;;;;;;;4859969;29;20029;-89
2022/03/07 08:32:02;;;;;;;28.02;14.50;;;;;;;;;;4862113;29;20042;-91
2022/03/07 08:34:28;;;;;;;28.02;15.38;;;;;;;;;;4861398;29;20021;-92
2022/03/07 08:36:55;;;;;;;26.08;14.52;;;;;;;;;;4861335;29;20443;-89
2022/03/07 08:39:21;;;;;;;25.30;14.70;;;;;;;;;;4861754;29;20056;-89
2022/03/07 08:41:47;;;;;;;27.73;14.40;;;;;;;;;;4861166;29;20071;-91
2022/03/07 08:44:13;;;;;;;30.33;15.90;;;;;;;;;;4860249;29;20491;-90
2022/03/07 08:46:40;;;;;;;29.40;15.73;;;;;;;;;;4861176;29;20090;-90
2022/03/07 08:49:06;;;;;;;26.00;14.48;;;;;;;;;;4860687;29;20136;-91
2022/03/07 08:51:44;;;;;;;30.85;15.98;;;;;;;;;;4861310;29;20058;-92
2022/03/07 08:54:10;;;;;;;30.20;16.42;;;;;;;;;;4861895;29;20032;-90
2022/03/07 08:56:39;;;;;;;28.02;15.70;;;;;;;;;;4861542;29;20025;-91
2022/03/07 08:59:06;;;;;;;29.08;14.32;;;;;;;;;;4861043;29;20029;-90
2022/03/07 09:01:32;;;;;;;26.38;14.52;;;;;;;;;;4863389;29;20116;-89
2022/03/07 09:03:58;;;;;;;28.08;13.32;;;;;;;;;;4862189;29;20037;-90
2022/03/07 09:09:09;;;;;;;29.00;13.15;;;;;;;;;;4862340;29;20048;-89
2022/03/07 09:11:35;;;;;;;26.25;13.52;;;;;;;;;;4863468;29;20105;-90
2022/03/07 09:14:01;;;;;;;24.77;13.90;;;;;;;;;;4861163;29;20491;-90
2022/03/07 09:16:27;;;;;;;23.92;13.15;;;;;;;;;;4861407;29;20030;-91
2022/03/07 09:18:53;;;;;;;20.90;11.73;;;;;;;;;;4862640;29;20037;-91
2022/03/07 09:24:45;;;;;;;22.70;13.73;;;;;;;;;;4862234;29;20048;-93
2022/03/07 09:27:11;;;;;;;23.38;14.77;;;;;;;;;;4861049;29;20270;-93
2022/03/07 09:35:35;;;;;;;21.70;11.60;;;;;;;;;;4913690;23;20421;-92
2022/03/07 09:38:17;;;;;;;19.05;11.05;;;;;;;;;;4883112;29;20104;-88
2022/03/07 09:44:02;;;;;;;19.17;9.80;;;;;;;;;;4917893;23;20108;-91
2022/03/07 09:49:57;;;;;;;13.77;8.38;;;;;;;;;;4955428;23;20108;-94
2022/03/07 09:54:59;;;;;;;16.00;8.38;;;;;;;;;;5207265;23;20057;-92
2022/03/07 10:00:19;;;;;;;15.32;8.15;;;;;;;;;;4951024;23;20064;-92
2022/03/07 10:03:27;;;;;;;14.18;8.45;;;;;;;;;;4886389;29;20041;-90
2022/03/07 10:06:15;;;;;;;14.57;7.30;;;;;;;;;;4829064;29;20057;-92
2022/03/07 10:11:50;;;;;;;16.75;8.85;;;;;;;;;;4845901;29;20116;-90
2022/03/07 10:14:34;;;;;;;16.48;9.45;;;;;;;;;;4829105;29;20119;-92
2022/03/07 10:17:09;;;;;;;44.13;24.35;;;;;;;;;;4866691;29;20132;-90
2022/03/07 10:19:54;;;;;;;22.08;13.40;;;;;;;;;;4903195;29;20033;-91
2022/03/07 10:25:31;;;;;;;16.88;10.07;;;;;;;;;;5086844;23;20398;-93
2022/03/07 10:28:11;;;;;;;16.02;10.10;;;;;;;;;;4888029;29;20044;-90
2022/03/07 10:31:17;;;;;;;18.10;8.80;;;;;;;;;;4882101;29;20463;-91
2022/03/07 10:34:02;;;;;;;16.27;9.10;;;;;;;;;;4926186;23;20120;-90
2022/03/07 10:36:38;;;;;;;14.07;7.53;;;;;;;;;;4883881;29;20025;-92
2022/03/07 10:39:06;;;;;;;16.05;9.45;;;;;;;;;;4879673;29;20041;-90
2022/03/07 10:41:39;;;;;;;17.67;9.77;;;;;;;;;;4865465;29;20106;-92
2022/03/07 10:44:07;;;;;;;15.02;8.45;;;;;;;;;;4866149;29;20487;-92
2022/03/07 10:46:40;;;;;;;13.30;7.80;;;;;;;;;;4866010;29;20029;-91
2022/03/07 10:49:07;;;;;;;15.13;7.78;;;;;;;;;;4864907;29;20079;-89
2022/03/07 10:51:33;;;;;;;12.55;7.97;;;;;;;;;;4865233;29;20383;-92
2022/03/07 10:54:30;;;;;;;13.85;7.93;;;;;;;;;;4867402;29;20160;-95
2022/03/07 10:56:57;;;;;;;19.35;8.45;;;;;;;;;;4867796;29;20045;-90
2022/03/07 10:59:31;;;;;;;14.65;8.27;;;;;;;;;;4867219;29;20043;-90
2022/03/07 11:07:16;;;;;;;14.82;8.25;;;;;;;;;;4912269;29;20036;-89
2022/03/07 11:09:43;;;;;;;14.00;8.50;;;;;;;;;;4904423;29;20028;-91
2022/03/07 11:21:38;;;;;;;19.20;9.27;;;;;;;;;;4904378;29;20051;-92
2022/03/07 11:24:35;;;;;;;14.15;8.07;;;;;;;;;;4885284;29;20052;-92
2022/03/07 11:27:08;;;;;;;17.23;8.88;;;;;;;;;;4885958;29;20566;-92
2022/03/07 11:29:46;;;;;;;20.77;8.48;;;;;;;;;;4890425;29;20036;-92
2022/03/07 11:34:58;;;;;;;16.80;9.10;;;;;;;;;;4962982;23;20124;-89
2022/03/07 11:40:27;;;;;;;20.20;8.48;;;;;;;;;;5010402;23;20052;-90
2022/03/07 11:46:06;;;;;;;14.63;8.68;;;;;;;;;;4899339;29;20044;-89
2022/03/07 11:48:56;;;;;;;15.68;8.73;;;;;;;;;;4883096;29;20028;-89
2022/03/07 11:51:25;;;;;;;13.90;8.07;;;;;;;;;;4883042;29;20036;-88
2022/03/07 11:54:27;;;;;;;15.43;7.63;;;;;;;;;;4883290;29;20032;-90
2022/03/07 11:57:09;;;;;;;12.55;7.70;;;;;;;;;;4827032;29;20065;-88
2022/03/07 11:59:37;;;;;;;13.88;8.00;;;;;;;;;;4826649;29;20033;-86
2022/03/07 12:04:56;;;;;;;12.65;6.85;;;;;;;;;;4965525;23;20060;-88
2022/03/07 12:13:06;;;;;;;29.50;7.60;;;;;;;;;;4899812;29;20036;-90
2022/03/07 12:15:45;;;;;;;9.82;6.28;;;;;;;;;;4882771;29;20273;-92
2022/03/07 12:18:20;;;;;;;11.38;6.63;;;;;;;;;;4913874;23;20067;-92
2022/03/07 12:20:57;;;;;;;14.95;7.15;;;;;;;;;;4879874;29;20033;-90
2022/03/07 12:23:25;;;;;;;10.20;6.15;;;;;;;;;;4865912;29;20141;-90
2022/03/07 12:26:32;;;;;;;;;;;;;;;;;;;;;
2022/03/07 12:28:58;;;;;;;10.50;6.10;;;;;;;;;;4903421;23;20053;-92
2022/03/07 12:31:40;;;;;;;10.20;5.72;;;;;;;;;;4890680;29;20434;-87
2022/03/07 12:34:13;;;;;;;8.55;5.03;;;;;;;;;;4886932;29;20028;-87
2022/03/07 12:46:02;;;;;;;11.27;6.00;;;;;;;;;;4823699;29;20053;-88
2022/03/07 12:48:47;;;;;;;10.80;5.57;;;;;;;;;;4823549;29;20069;-88
2022/03/07 12:54:17;;;;;;;11.05;5.75;;;;;;;;;;4805114;29;20033;-90
2022/03/07 12:56:44;;;;;;;11.80;6.18;;;;;;;;;;4804908;29;20149;-87
2022/03/07 12:59:11;;;;;;;10.20;6.07;;;;;;;;;;4805122;29;20026;-86
2022/03/07 13:01:41;;;;;;;10.27;5.43;;;;;;;;;;4862013;29;20040;-88
2022/03/07 13:04:20;;;;;;;11.23;5.38;;;;;;;;;;4863895;29;20113;-88
2022/03/07 13:06:48;;;;;;;10.80;5.45;;;;;;;;;;4863675;29;20402;-88
2022/03/07 13:09:16;;;;;;;13.18;6.35;;;;;;;;;;4864426;29;20382;-91
2022/03/07 13:11:43;;;;;;;9.27;5.45;;;;;;;;;;4865544;29;20037;-87
2022/03/07 13:14:10;;;;;;;10.57;5.78;;;;;;;;;;4864865;29;20033;-88
2022/03/07 13:32:11;;;;;;;10.27;5.20;;;;;;;;;;4940338;23;20060;-89
2022/03/07 13:34:50;;;;;;;15.38;6.63;;;;;;;;;;4867274;29;20120;-89
2022/03/07 13:37:19;;;;;;;12.90;6.90;;;;;;;;;;4867408;29;20044;-90
2022/03/07 13:39:45;;;;;;;15.25;7.00;;;;;;;;;;4867570;29;20060;-88
2022/03/07 13:42:16;;;;;;;12.27;6.47;;;;;;;;;;4867259;29;20029;-89
2022/03/07 13:44:50;;;;;;;12.50;5.80;;;;;;;;;;4867411;29;20391;-91
2022/03/07 13:47:16;;;;;;;12.25;6.45;;;;;;;;;;4867355;29;20111;-88
2022/03/07 13:49:53;;;;;;;13.18;6.18;;;;;;;;;;4868058;29;20043;-86
2022/03/07 13:52:29;;;;;;;10.05;5.68;;;;;;;;;;4867351;29;20378;-89
2022/03/07 14:01:11;;;;;;;11.67;5.50;;;;;;;;;;5088664;23;20108;-87
2022/03/07 14:03:37;;;;;;;10.02;5.28;;;;;;;;;;4878071;29;20052;-89
2022/03/07 14:06:04;;;;;;;10.38;5.00;;;;;;;;;;4871209;29;20115;-89
2022/03/07 14:08:32;;;;;;;9.77;4.95;;;;;;;;;;4867432;29;20029;-88
2022/03/07 14:11:18;;;;;;;7.10;4.20;;;;;;;;;;4865963;29;20391;-88
2022/03/07 14:13:50;;;;;;;6.68;3.58;;;;;;;;;;4866281;29;20029;-87
2022/03/07 14:16:20;;;;;;;7.22;3.38;;;;;;;;;;4866173;29;20041;-87
2022/03/07 14:18:51;;;;;;;5.82;2.90;;;;;;;;;;4866469;29;20072;-89
2022/03/07 14:21:42;;;;;;;5.50;3.20;;;;;;;;;;4868627;29;20032;-87
2022/03/07 14:24:12;;;;;;;5.75;3.40;;;;;;;;;;4897405;23;20515;-88
2022/03/07 14:32:29;;;;;;;13.65;3.05;;;;;;;;;;4940590;23;20052;-95
2022/03/07 14:34:55;;;;;;;7.47;3.13;;;;;;;;;;4866574;29;20052;-91
2022/03/07 14:37:49;;;;;;;6.53;3.60;;;;;;;;;;4865549;29;20025;-88
2022/03/07 14:40:22;;;;;;;7.85;3.55;;;;;;;;;;4865540;29;20134;-90
2022/03/07 14:42:49;;;;;;;7.30;3.15;;;;;;;;;;4865975;29;20052;-87
2022/03/07 14:45:15;;;;;;;8.15;3.13;;;;;;;;;;4865566;29;20143;-87
2022/03/07 14:47:44;;;;;;;6.65;2.70;;;;;;;;;;4866105;29;20033;-91
2022/03/07 14:50:11;;;;;;;6.70;3.33;;;;;;;;;;4866476;29;20033;-90
2022/03/07 14:52:38;;;;;;;8.25;3.10;;;;;;;;;;4882615;29;20029;-88
2022/03/07 14:55:08;;;;;;;5.80;3.40;;;;;;;;;;4867071;29;20029;-90
2022/03/07 14:57:47;;;;;;;5.45;3.08;;;;;;;;;;4867154;29;20029;-90
2022/03/07 15:00:15;;;;;;;8.93;3.80;;;;;;;;;;4866802;29;20055;-89
2022/03/07 15:02:41;;;;;;;7.63;3.55;;;;;;;;;;4868447;29;20044;-88
2022/03/07 15:05:09;;;;;;;7.85;4.10;;;;;;;;;;4868683;29;20033;-89
2022/03/07 15:07:35;;;;;;;8.40;3.67;;;;;;;;;;4867494;29;20033;-90
2022/03/07 15:10:03;;;;;;;6.72;3.45;;;;;;;;;;4882084;29;20009;-89
2022/03/07 15:12:29;;;;;;;6.13;3.30;;;;;;;;;;4889061;29;20017;-92
2022/03/07 15:14:55;;;;;;;6.05;3.45;;;;;;;;;;4875374;29;20123;-91
2022/03/07 15:17:22;;;;;;;9.18;3.30;;;;;;;;;;4865804;29;20036;-93
2022/03/07 15:19:48;;;;;;;7.93;3.55;;;;;;;;;;4865721;29;20037;-89
2022/03/07 15:22:15;;;;;;;4.72;2.13;;;;;;;;;;4883009;29;20423;-89
2022/03/07 15:24:42;;;;;;;5.78;3.20;;;;;;;;;;4865485;29;20111;-88
2022/03/07 15:27:08;;;;;;;6.95;2.80;;;;;;;;;;4865587;29;20030;-91
2022/03/07 15:29:34;;;;;;;6.38;3.08;;;;;;;;;;4865087;29;20513;-89
2022/03/07 15:32:01;;;;;;;6.53;3.30;;;;;;;;;;4865445;29;20067;-91
2022/03/07 15:34:27;;;;;;;7.20;3.35;;;;;;;;;;4865536;29;20125;-90
2022/03/07 15:36:54;;;;;;;8.00;3.47;;;;;;;;;;4865006;29;20115;-86
2022/03/07 15:39:21;;;;;;;6.57;3.55;;;;;;;;;;4865752;29;20120;-92
2022/03/07 15:41:47;;;;;;;6.03;2.97;;;;;;;;;;4865999;29;20119;-91
2022/03/07 15:44:15;;;;;;;7.80;2.78;;;;;;;;;;4867172;29;20053;-89
2022/03/07 15:46:41;;;;;;;7.13;3.38;;;;;;;;;;4865398;29;20088;-90
2022/03/07 15:49:08;;;;;;;9.38;2.90;;;;;;;;;;4865397;29;20479;-91
2022/03/07 15:51:38;;;;;;;6.68;3.10;;;;;;;;;;4865018;29;20059;-91
2022/03/07 15:54:06;;;;;;;6.88;3.25;;;;;;;;;;4863969;29;20120;-89
2022/03/07 15:56:34;;;;;;;6.65;3.10;;;;;;;;;;4865334;29;20040;-90
2022/03/07 15:59:01;;;;;;;7.20;3.42;;;;;;;;;;4881898;29;20041;-88
2022/03/07 16:01:27;;;;;;;7.25;3.45;;;;;;;;;;4864837;29;20025;-90
2022/03/07 16:03:53;;;;;;;7.95;3.72;;;;;;;;;;4866502;29;20105;-88
2022/03/07 16:06:25;;;;;;;5.50;3.13;;;;;;;;;;4868053;29;20029;-92
2022/03/07 16:08:54;;;;;;;6.88;2.88;;;;;;;;;;4866387;29;20033;-90
2022/03/07 16:11:21;;;;;;;6.63;3.17;;;;;;;;;;4864533;29;20025;-90
2022/03/07 16:13:47;;;;;;;7.10;3.55;;;;;;;;;;4864992;29;20032;-90
2022/03/07 16:16:15;;;;;;;7.22;3.35;;;;;;;;;;4865486;29;20036;-88
2022/03/07 16:18:41;;;;;;;7.15;3.22;;;;;;;;;;4865534;29;20040;-91
2022/03/07 16:21:10;;;;;;;8.75;3.63;;;;;;;;;;4864762;29;20029;-88
2022/03/07 16:23:36;;;;;;;7.93;4.07;;;;;;;;;;4865093;29;20132;-89